Lakeport, Michigan
Current Conditions -  °F | °C
As of 11:37 PM on Saturday 22 Nov 2014 (Local Time) from KPHN Reporting Station
Haze Haze  
Wind Chill: 39°   Ceiling: 6000
Heat Index: 43°   Visibility: 5mi
Dew Point: 41°   Wind: 6mph
Humidity: 93%   Direction: 190°S
Pressure: 29.94"   Gusts: NA
Location:  43.0393°N, 82.4847°W
Report Text: KPHN 230437Z AUTO 19005KT 5SM BR SCT028 OVC060 06/05 A2994 RMK AO2
Loading
Personal Weather Stations






























Interactive Weather Map New forecast layout! Learn more

10-Day Weather Forecast

Advertisements
Track Severe Weather on mobile